Terminal Aerodrome Forecast
Issued by NWS Binghamton, NY

Home | Current Version | Previous Version | Text Only | Print | Product List | Glossary On
Versions: 1 2 3 4 5 6 7 8 9 10 11 12 13 14 15 16
000
FTUS41 KBGM 012300
TAFSYR
TAF
KSYR 012324Z 0200/0224 VRB03KT P6SM SCT250
     FM020500 15005KT P6SM OVC080
     FM020800 15005KT P6SM OVC040
     FM021400 18012G22KT P6SM SCT250=

USA.gov is the U.S. government's official web portal to all federal, state and local government web resources and services.